Time;durP1;ratioP1;P1;durP2;ratioP2;P2;SDS_P1;SDS_P2;PMS_P1;PMS_P2;Temp;Humidity;BMP_temperature;BMP_pressure;BME280_temperature;BME280_humidity;BME280_pressure;Samples;Min_cycle;Max_cycle;Signal;HPM_P1;HPM_P2
2024/01/31 00:00:14;;;;;;;;;10.00;10.00;;;;;14.59;91.86;102870.91;2096745;28;46147;-70
2024/01/31 00:01:18;;;;;;;;;11.00;11.00;;;;;14.56;92.17;102871.81;2096325;28;46356;-71
2024/01/31 00:02:18;;;;;;;;;9.50;9.50;;;;;14.60;91.74;102872.69;2095196;28;46401;-71
2024/01/31 00:03:19;;;;;;;;;11.00;10.00;;;;;14.55;92.12;102874.50;2095176;28;46513;-69
2024/01/31 00:04:19;;;;;;;;;12.67;12.33;;;;;14.56;91.75;102879.84;2096036;28;46409;-71
2024/01/31 00:05:19;;;;;;;;;9.00;7.67;;;;;14.57;92.08;102876.25;2096090;28;46773;-69
2024/01/31 00:06:20;;;;;;;;;11.67;11.00;;;;;14.58;91.75;102874.47;2095645;28;46419;-70
2024/01/31 00:07:21;;;;;;;;;12.33;10.33;;;;;14.55;91.88;102866.47;2094428;28;46219;-70
2024/01/31 00:08:21;;;;;;;;;9.67;9.67;;;;;14.42;91.79;102866.50;2095927;28;46723;-68
2024/01/31 00:09:21;;;;;;;;;10.00;10.00;;;;;14.51;92.31;102862.06;2095956;28;44964;-70
2024/01/31 00:10:22;;;;;;;;;11.00;11.00;;;;;14.52;91.88;102861.16;2096229;28;46208;-69
2024/01/31 00:11:25;;;;;;;;;11.33;11.33;;;;;14.51;91.84;102862.06;2095290;28;46276;-71
2024/01/31 00:12:27;;;;;;;;;12.25;12.25;;;;;14.51;91.65;102859.38;2095631;28;47033;-71
2024/01/31 00:13:28;;;;;;;;;11.75;10.50;;;;;14.50;91.74;102863.84;2095246;28;46560;-70
2024/01/31 00:14:28;;;;;;;;;10.33;10.00;;;;;14.50;91.72;102862.97;2094815;28;46363;-70
2024/01/31 00:15:28;;;;;;;;;13.00;12.00;;;;;14.49;91.79;102861.19;2095247;28;46929;-71
2024/01/31 00:16:28;;;;;;;;;10.33;9.67;;;;;14.49;91.61;102863.84;2096182;28;46983;-70
2024/01/31 00:17:29;;;;;;;;;11.67;11.67;;;;;14.48;91.75;102864.72;2095640;28;46627;-70
2024/01/31 00:18:29;;;;;;;;;10.00;10.00;;;;;14.51;91.27;102862.06;2096031;28;46588;-70
2024/01/31 00:19:30;;;;;;;;;11.00;11.00;;;;;14.52;91.50;102863.84;2096349;28;45864;-70
2024/01/31 00:20:30;;;;;;;;;10.33;10.33;;;;;14.47;92.36;102865.63;2095774;28;45638;-69
2024/01/31 00:21:31;;;;;;;;;15.33;13.00;;;;;14.40;92.14;102865.63;2095407;28;46216;-69
2024/01/31 00:22:31;;;;;;;;;13.00;11.33;;;;;14.49;92.16;102866.53;2094210;28;46212;-71
2024/01/31 00:23:32;;;;;;;;;9.67;9.67;;;;;14.48;92.15;102860.25;2095808;28;46377;-68
2024/01/31 00:24:32;;;;;;;;;11.00;11.00;;;;;14.39;91.88;102871.84;2095686;28;46225;-71
2024/01/31 00:25:32;;;;;;;;;13.33;13.33;;;;;14.33;92.28;102869.19;2095734;28;46060;-70
2024/01/31 00:26:33;;;;;;;;;10.67;10.67;;;;;14.45;92.20;102870.97;2096374;28;46370;-71
2024/01/31 00:27:33;;;;;;;;;10.33;10.33;;;;;14.45;92.91;102870.06;2095636;28;46330;-69
2024/01/31 00:28:33;;;;;;;;;11.67;11.00;;;;;14.43;92.81;102868.28;2095512;28;46294;-69
2024/01/31 00:29:34;;;;;;;;;14.00;13.00;;;;;14.54;93.20;102865.59;2096416;28;46789;-70
2024/01/31 00:30:34;;;;;;;;;14.00;12.00;;;;;14.66;93.11;102865.56;2095744;28;46337;-69
2024/01/31 00:31:34;;;;;;;;;13.75;12.75;;;;;14.68;93.46;102865.53;2095678;28;45549;-69
2024/01/31 00:32:35;;;;;;;;;9.33;9.00;;;;;14.64;93.36;102864.66;2094797;28;46566;-68
2024/01/31 00:33:35;;;;;;;;;10.00;9.67;;;;;14.66;94.27;102870.00;2085906;28;46163;-70
2024/01/31 00:34:35;;;;;;;;;13.00;13.00;;;;;14.72;94.25;102878.88;2086652;28;46347;-70
2024/01/31 00:35:36;;;;;;;;;13.00;10.67;;;;;14.75;93.85;102874.44;2095305;28;46648;-71
2024/01/31 00:36:36;;;;;;;;;12.67;12.67;;;;;14.78;92.82;102872.63;2094887;28;46323;-71
2024/01/31 00:37:36;;;;;;;;;13.67;12.00;;;;;14.79;92.44;102871.72;2096082;28;46660;-68
2024/01/31 00:38:36;;;;;;;;;13.00;11.33;;;;;14.86;91.79;102865.44;2094364;28;46110;-71
2024/01/31 00:39:38;;;;;;;;;12.33;12.33;;;;;14.83;91.62;102868.13;2095834;28;46247;-70
2024/01/31 00:40:38;;;;;;;;;11.00;11.00;;;;;14.89;91.39;102864.56;2095478;28;47003;-69
2024/01/31 00:41:38;;;;;;;;;11.00;11.00;;;;;14.82;91.32;102862.78;2095698;28;46656;-70
2024/01/31 00:42:39;;;;;;;;;13.67;13.00;;;;;14.81;91.68;102863.69;2095663;28;45330;-70
2024/01/31 00:43:39;;;;;;;;;11.67;10.67;;;;;14.82;91.96;102863.69;2103677;27;45446;-71
2024/01/31 00:44:39;;;;;;;;;12.00;12.00;;;;;14.85;91.24;102871.69;2102013;27;46596;-69
2024/01/31 00:45:40;;;;;;;;;12.00;11.33;;;;;14.84;91.43;102864.56;2095233;28;46257;-71
2024/01/31 00:46:42;;;;;;;;;10.33;10.33;;;;;14.79;91.35;102863.72;2095692;28;46663;-70
2024/01/31 00:47:43;;;;;;;;;10.75;9.75;;;;;14.78;91.53;102855.69;2096224;28;46301;-69
2024/01/31 00:48:43;;;;;;;;;12.00;12.00;;;;;14.82;91.78;102852.09;2095687;28;47446;-68
2024/01/31 00:49:44;;;;;;;;;12.67;11.67;;;;;14.81;91.42;102853.88;2095801;28;45961;-70
2024/01/31 00:50:44;;;;;;;;;10.33;10.33;;;;;14.76;92.04;102847.69;2095919;28;47499;-70
2024/01/31 00:52:03;;;;;;;;;11.33;11.33;;;;;14.86;92.02;102859.19;2095653;28;46706;-70
2024/01/31 00:53:04;;;;;;;;;11.25;10.00;;;;;14.88;92.07;102844.97;2091853;28;46355;-70
2024/01/31 00:54:04;;;;;;;;;11.33;11.00;;;;;14.89;91.21;102844.06;2095935;28;46500;-69
2024/01/31 00:55:05;;;;;;;;;11.00;11.00;;;;;14.87;90.69;102845.84;2095235;28;46717;-70
2024/01/31 00:56:05;;;;;;;;;11.00;11.00;;;;;14.85;91.05;102841.38;2095971;28;45214;-71
2024/01/31 00:57:06;;;;;;;;;14.00;12.00;;;;;14.86;90.62;102843.16;2095859;28;46580;-70
2024/01/31 00:58:06;;;;;;;;;13.33;13.33;;;;;14.81;90.90;102839.63;2095600;28;46393;-70
2024/01/31 00:59:06;;;;;;;;;11.67;10.33;;;;;14.81;90.53;102840.53;2095646;28;46618;-70
2024/01/31 01:00:09;;;;;;;;;13.33;12.00;;;;;14.87;90.87;102835.16;2095784;28;46522;-67
2024/01/31 01:01:09;;;;;;;;;8.25;7.00;;;;;14.86;90.79;102837.81;2095234;28;46788;-70
2024/01/31 01:02:10;;;;;;;;;13.67;12.00;;;;;14.84;90.98;102839.63;2103734;28;46656;-70
2024/01/31 01:03:10;;;;;;;;;11.33;11.33;;;;;14.84;90.84;102840.50;2102651;28;46059;-71
2024/01/31 01:04:10;;;;;;;;;12.00;10.00;;;;;14.84;90.33;102837.81;2095360;28;45853;-70
2024/01/31 01:05:11;;;;;;;;;10.33;10.33;;;;;14.79;91.27;102834.31;2095690;28;46480;-69
2024/01/31 01:06:11;;;;;;;;;9.33;9.33;;;;;14.80;91.72;102840.53;2095803;28;46671;-71
2024/01/31 01:07:12;;;;;;;;;9.67;9.67;;;;;14.75;92.44;102837.00;2095191;28;48370;-69
2024/01/31 01:08:12;;;;;;;;;13.75;12.75;;;;;14.76;93.33;102837.00;2094200;28;45825;-71
2024/01/31 01:09:13;;;;;;;;;11.00;11.00;;;;;14.77;93.56;102837.88;2095356;28;46348;-70
2024/01/31 01:10:15;;;;;;;;;9.00;9.00;;;;;14.79;93.69;102834.31;2095736;28;46364;-71
2024/01/31 01:11:15;;;;;;;;;12.50;11.25;;;;;14.83;94.35;102837.84;2095581;28;46620;-69
2024/01/31 01:12:15;;;;;;;;;11.33;11.33;;;;;14.81;93.55;102832.50;2095391;28;45862;-71
2024/01/31 01:13:16;;;;;;;;;10.00;10.00;;;;;14.79;93.59;102836.97;2095942;28;46145;-69
2024/01/31 01:14:17;;;;;;;;;9.00;9.00;;;;;14.84;92.24;102842.28;2095626;28;46534;-69
2024/01/31 01:15:19;;;;;;;;;10.00;9.67;;;;;14.80;92.29;102838.75;2095022;28;45962;-71
2024/01/31 01:16:19;;;;;;;;;10.25;10.25;;;;;14.78;92.10;102834.31;2095668;28;46784;-70
2024/01/31 01:17:19;;;;;;;;;8.67;8.67;;;;;14.71;92.03;102833.44;2095456;28;46403;-71
2024/01/31 01:18:20;;;;;;;;;12.33;10.67;;;;;14.79;92.33;102836.97;2095388;28;46165;-71
2024/01/31 01:19:20;;;;;;;;;9.67;9.67;;;;;14.72;92.27;102840.56;2094833;28;46485;-71
2024/01/31 01:20:20;;;;;;;;;10.33;10.33;;;;;14.70;92.21;102842.38;2095528;28;45755;-70
2024/01/31 01:21:21;;;;;;;;;10.00;10.00;;;;;14.76;92.78;102836.13;2095936;28;46195;-70
2024/01/31 01:22:21;;;;;;;;;10.67;10.33;;;;;14.76;92.41;102841.47;2095686;28;46857;-70
2024/01/31 01:23:21;;;;;;;;;8.33;8.33;;;;;14.79;92.87;102841.44;2095346;28;46347;-69
2024/01/31 01:24:22;;;;;;;;;8.67;8.67;;;;;14.82;91.95;102836.94;2095418;28;46222;-69
2024/01/31 01:25:22;;;;;;;;;9.33;9.33;;;;;14.81;91.59;102843.19;2095212;28;46339;-69
2024/01/31 01:26:22;;;;;;;;;10.00;9.33;;;;;14.76;92.01;102839.69;2093254;28;46835;-70
2024/01/31 01:27:23;;;;;;;;;13.00;11.00;;;;;14.78;92.44;102842.34;2095423;28;46716;-69
2024/01/31 01:28:23;;;;;;;;;11.33;9.33;;;;;14.78;92.10;102837.00;2095711;28;45248;-69
2024/01/31 01:29:23;;;;;;;;;10.67;10.00;;;;;14.76;91.60;102837.00;2095217;28;46395;-68
2024/01/31 01:30:24;;;;;;;;;12.33;12.00;;;;;14.78;91.18;102835.22;2095542;28;46932;-71
2024/01/31 01:31:24;;;;;;;;;11.00;11.00;;;;;14.83;91.10;102829.81;2095657;28;46595;-70
2024/01/31 01:32:24;;;;;;;;;13.67;13.67;;;;;14.73;91.13;102826.31;2095294;28;45640;-70
2024/01/31 01:33:25;;;;;;;;;12.67;12.67;;;;;14.76;91.22;102825.44;2095005;28;46818;-69
2024/01/31 01:34:25;;;;;;;;;15.67;15.00;;;;;14.70;91.36;102824.53;2095776;28;46520;-69
2024/01/31 01:35:25;;;;;;;;;11.00;11.00;;;;;14.73;91.25;102827.19;2094996;28;47015;-70
2024/01/31 01:36:26;;;;;;;;;12.67;12.67;;;;;14.73;91.37;102819.16;2095547;28;46108;-70
2024/01/31 01:37:26;;;;;;;;;13.00;13.00;;;;;14.70;91.48;102826.31;2095518;28;46626;-69
2024/01/31 01:38:27;;;;;;;;;13.67;12.67;;;;;14.68;91.93;102826.34;2095250;28;46795;-70
2024/01/31 01:39:27;;;;;;;;;16.00;14.00;;;;;14.71;91.66;102833.44;2095209;28;46342;-70
2024/01/31 01:40:27;;;;;;;;;13.00;13.00;;;;;14.67;91.53;102827.22;2095644;28;46811;-70
2024/01/31 01:41:28;;;;;;;;;12.00;11.33;;;;;14.70;91.77;102824.53;2094673;28;46719;-69
2024/01/31 01:42:28;;;;;;;;;14.00;13.00;;;;;14.73;91.92;102826.31;2092539;28;46351;-68
2024/01/31 01:43:28;;;;;;;;;13.00;13.00;;;;;14.70;91.67;102823.66;2085793;28;46388;-69
2024/01/31 01:44:33;;;;;;;;;13.00;13.00;;;;;14.76;91.55;102831.66;2094567;28;47426;-71
2024/01/31 01:45:33;;;;;;;;;14.75;14.50;;;;;14.67;91.34;102832.59;2095885;28;47247;-69
2024/01/31 01:46:35;;;;;;;;;10.33;10.00;;;;;14.70;91.95;102821.88;2095614;28;46569;-71
2024/01/31 01:47:40;;;;;;;;;12.50;12.00;;;;;14.72;91.50;102830.75;2096447;28;46120;-69
2024/01/31 01:48:44;;;;;;;;;14.25;12.75;;;;;14.70;91.70;102829.00;2095088;28;46818;-70
2024/01/31 01:49:48;;;;;;;;;11.75;11.75;;;;;14.68;91.14;102830.78;2095153;28;47004;-69
2024/01/31 01:50:49;;;;;;;;;10.50;10.25;;;;;14.67;90.58;102816.53;2094857;28;46415;-71
2024/01/31 01:51:50;;;;;;;;;14.00;11.33;;;;;14.70;90.71;102821.88;2095334;28;46584;-71
2024/01/31 01:52:51;;;;;;;;;14.40;12.80;;;;;14.68;90.52;102826.34;2094940;28;46379;-70
2024/01/31 01:53:52;;;;;;;;;11.60;11.00;;;;;14.64;90.45;102827.25;2095749;28;45278;-70
2024/01/31 01:54:53;;;;;;;;;13.00;12.00;;;;;14.69;90.31;102825.44;2094957;28;45687;-70
2024/01/31 01:55:53;;;;;;;;;10.67;9.67;;;;;14.71;89.99;102828.09;2095412;28;46313;-71
2024/01/31 01:56:54;;;;;;;;;10.00;9.00;;;;;14.69;89.38;102825.44;2095510;28;46657;-69
2024/01/31 01:57:55;;;;;;;;;8.67;8.67;;;;;14.68;89.38;102828.13;2093827;28;46297;-69
2024/01/31 01:58:56;;;;;;;;;12.00;11.00;;;;;14.68;89.71;102834.34;2095058;28;46527;-69
2024/01/31 01:59:57;;;;;;;;;10.00;10.00;;;;;14.68;89.64;102825.44;2095078;28;46535;-69
2024/01/31 02:01:00;;;;;;;;;11.00;10.75;;;;;14.56;90.17;102825.50;2095161;28;46239;-69
2024/01/31 02:02:01;;;;;;;;;8.50;8.50;;;;;14.50;90.12;102834.47;2095476;28;46344;-69
2024/01/31 02:03:03;;;;;;;;;10.20;10.00;;;;;14.49;90.75;102829.13;2095002;28;46755;-70
2024/01/31 02:04:06;;;;;;;;;12.00;10.75;;;;;14.49;90.87;102826.44;2095376;28;46168;-70
2024/01/31 02:05:07;;;;;;;;;9.00;9.00;;;;;14.50;91.02;102822.88;2095581;28;46724;-70
2024/01/31 02:06:08;;;;;;;;;11.40;9.40;;;;;14.47;90.80;102829.09;2095860;28;45757;-70
2024/01/31 02:07:08;;;;;;;;;10.00;10.00;;;;;14.40;91.21;102828.22;2095110;28;46305;-71
2024/01/31 02:08:09;;;;;;;;;11.00;9.00;;;;;14.39;91.46;102837.13;2094980;28;46872;-70
2024/01/31 02:09:10;;;;;;;;;11.00;10.25;;;;;14.43;91.65;102827.31;2095381;28;46151;-68
2024/01/31 02:10:10;;;;;;;;;6.75;6.75;;;;;14.37;91.40;102830.03;2095411;28;46601;-69
2024/01/31 02:11:10;;;;;;;;;11.25;11.25;;;;;14.26;91.69;102829.16;2094390;28;45237;-70
2024/01/31 02:12:11;;;;;;;;;12.25;11.00;;;;;14.23;92.35;102830.06;2094993;28;45658;-69
2024/01/31 02:13:11;;;;;;;;;13.00;10.33;;;;;14.24;92.61;102828.28;2093783;28;46062;-68
2024/01/31 02:14:11;;;;;;;;;11.00;11.00;;;;;14.37;93.06;102830.91;2095101;28;46589;-69
2024/01/31 02:15:12;;;;;;;;;12.00;10.33;;;;;14.47;91.92;102822.88;2095356;28;46217;-70
2024/01/31 02:16:13;;;;;;;;;9.50;8.00;;;;;14.47;91.52;102823.75;2094587;28;46390;-69
2024/01/31 02:17:14;;;;;;;;;10.80;9.80;;;;;14.47;91.25;102821.09;2094291;28;46051;-69
2024/01/31 02:18:14;;;;;;;;;10.50;10.00;;;;;14.54;90.86;102820.19;2095744;28;46260;-70
2024/01/31 02:19:14;;;;;;;;;10.67;10.00;;;;;14.54;90.66;102821.97;2094661;28;46644;-69
2024/01/31 02:20:15;;;;;;;;;8.00;8.00;;;;;14.52;90.83;102810.41;2094011;28;46578;-69
2024/01/31 02:21:16;;;;;;;;;8.25;8.25;;;;;14.58;90.05;102811.25;2095691;28;45625;-68
2024/01/31 02:22:18;;;;;;;;;8.00;8.00;;;;;14.58;89.95;102816.59;2095145;28;45812;-68
2024/01/31 02:23:18;;;;;;;;;9.00;9.00;;;;;14.50;90.12;102812.19;2095056;28;46723;-69
2024/01/31 02:24:19;;;;;;;;;9.50;9.00;;;;;14.51;90.39;102817.53;2094995;28;46182;-69
2024/01/31 02:25:19;;;;;;;;;9.00;9.00;;;;;14.49;90.79;102813.97;2095304;28;46637;-69
2024/01/31 02:26:20;;;;;;;;;10.50;9.50;;;;;14.46;90.59;102807.75;2095014;28;45199;-70
2024/01/31 02:27:20;;;;;;;;;10.00;10.00;;;;;14.46;90.66;102813.97;2094466;28;46885;-69
2024/01/31 02:28:21;;;;;;;;;9.00;9.00;;;;;14.47;90.43;102806.84;2094939;28;46498;-69
2024/01/31 02:29:21;;;;;;;;;8.67;8.00;;;;;14.51;90.13;102808.63;2095501;28;46244;-71
2024/01/31 02:30:22;;;;;;;;;9.33;8.00;;;;;14.51;90.04;102812.19;2094712;28;45939;-69
2024/01/31 02:31:22;;;;;;;;;9.67;9.67;;;;;14.42;89.96;102815.75;2095160;28;46604;-70
2024/01/31 02:32:22;;;;;;;;;12.33;9.00;;;;;14.42;90.34;102817.53;2094828;28;46348;-70
2024/01/31 02:33:23;;;;;;;;;11.00;11.00;;;;;14.33;90.20;102821.09;2094898;28;46663;-69
2024/01/31 02:34:25;;;;;;;;;9.67;8.33;;;;;14.37;90.08;102817.56;2095525;28;46386;-68
2024/01/31 02:35:26;;;;;;;;;8.75;8.75;;;;;14.37;90.39;102817.56;2094754;28;46809;-69
2024/01/31 02:36:26;;;;;;;;;5.25;5.00;;;;;14.39;90.42;102817.53;2094697;28;46385;-70
2024/01/31 02:37:27;;;;;;;;;8.00;7.00;;;;;14.39;90.35;102814.88;2092902;28;46414;-71
2024/01/31 02:38:27;;;;;;;;;11.67;10.33;;;;;14.39;90.27;102813.09;2094377;28;46669;-70
2024/01/31 02:39:27;;;;;;;;;7.33;7.33;;;;;14.34;89.89;102817.53;2095001;28;46475;-70
2024/01/31 02:40:31;;;;;;;;;6.33;6.33;;;;;14.29;90.28;102818.47;2094796;28;46711;-70
2024/01/31 02:41:31;;;;;;;;;9.75;8.75;;;;;14.35;90.36;102823.78;2102486;27;45437;-69
2024/01/31 02:42:32;;;;;;;;;8.67;8.00;;;;;14.38;90.48;102826.44;2102899;28;45604;-70
2024/01/31 02:43:32;;;;;;;;;8.00;8.00;;;;;14.34;90.27;102822.00;2095203;28;46395;-69
2024/01/31 02:44:33;;;;;;;;;9.33;8.33;;;;;14.28;90.57;102828.25;2094748;28;45063;-70
2024/01/31 02:45:35;;;;;;;;;8.67;8.67;;;;;14.33;90.95;102829.13;2094985;28;45234;-69
2024/01/31 02:46:37;;;;;;;;;8.50;8.50;;;;;14.26;90.79;102824.72;2095178;28;46891;-70
2024/01/31 02:47:38;;;;;;;;;10.50;10.00;;;;;14.22;91.15;102828.25;2094832;28;46374;-69
2024/01/31 02:48:39;;;;;;;;;8.00;7.50;;;;;14.23;91.11;102829.16;2094604;28;46824;-69
2024/01/31 02:49:39;;;;;;;;;7.67;7.67;;;;;14.22;91.01;102827.38;2095199;28;46420;-69
2024/01/31 02:50:39;;;;;;;;;8.00;7.67;;;;;14.28;90.72;102828.25;2095040;28;46254;-69
2024/01/31 02:51:40;;;;;;;;;9.00;9.00;;;;;14.28;91.23;102825.59;2094270;28;46367;-69
2024/01/31 02:52:41;;;;;;;;;7.33;7.33;;;;;14.31;91.43;102836.25;2094583;28;46329;-69
2024/01/31 02:53:41;;;;;;;;;8.75;8.75;;;;;14.34;91.34;102835.34;2094956;28;46683;-70
2024/01/31 02:54:42;;;;;;;;;9.00;9.00;;;;;14.19;90.71;102828.28;2094264;28;45671;-69
2024/01/31 02:55:42;;;;;;;;;8.00;8.00;;;;;14.23;91.03;102824.72;2094827;28;46289;-70
2024/01/31 02:56:42;;;;;;;;;9.33;8.00;;;;;14.25;91.54;102827.41;2094586;28;46264;-70
2024/01/31 02:57:43;;;;;;;;;9.00;9.00;;;;;14.33;91.57;102815.75;2094469;28;46579;-69
2024/01/31 02:58:43;;;;;;;;;10.00;10.00;;;;;14.32;90.94;102827.34;2094992;28;46380;-69
2024/01/31 02:59:44;;;;;;;;;11.00;9.33;;;;;14.33;90.64;102826.44;2094752;28;46829;-70
2024/01/31 03:00:44;;;;;;;;;9.00;9.00;;;;;14.33;90.64;102823.78;2094825;28;46710;-69
2024/01/31 03:01:45;;;;;;;;;9.33;9.33;;;;;14.34;90.76;102830.91;2094284;28;46915;-70
2024/01/31 03:02:45;;;;;;;;;9.00;9.00;;;;;14.36;91.11;102830.91;2094945;28;45625;-69
2024/01/31 03:03:45;;;;;;;;;11.67;7.67;;;;;14.33;90.66;102830.91;2094755;28;46807;-69
2024/01/31 03:04:46;;;;;;;;;9.33;9.33;;;;;14.30;91.22;102831.81;2095131;28;46699;-69
2024/01/31 03:05:46;;;;;;;;;10.67;10.33;;;;;14.32;91.48;102835.34;2095072;28;46399;-69
2024/01/31 03:06:46;;;;;;;;;9.00;9.00;;;;;14.29;91.02;102835.38;2095124;28;46276;-70
2024/01/31 03:07:47;;;;;;;;;10.67;9.67;;;;;14.28;91.38;102832.72;2094448;28;46634;-69
2024/01/31 03:08:47;;;;;;;;;9.33;9.33;;;;;14.30;91.10;102837.16;2094987;28;46474;-69
2024/01/31 03:09:48;;;;;;;;;9.67;9.67;;;;;14.32;91.14;102840.69;2094803;28;46479;-70
2024/01/31 03:10:48;;;;;;;;;10.00;10.00;;;;;14.33;91.17;102841.59;2093035;28;46636;-70
2024/01/31 03:11:48;;;;;;;;;11.00;10.00;;;;;14.35;91.17;102837.13;2093287;28;45577;-69
2024/01/31 03:12:48;;;;;;;;;9.67;9.00;;;;;14.27;91.03;102837.16;2094861;28;46864;-69
2024/01/31 03:13:50;;;;;;;;;11.67;10.67;;;;;14.23;91.03;102840.75;2094998;28;46381;-68
2024/01/31 03:14:51;;;;;;;;;11.50;11.50;;;;;14.24;91.41;102839.84;2095284;28;45066;-70
2024/01/31 03:15:51;;;;;;;;;9.67;9.00;;;;;14.26;91.39;102846.06;2094958;28;46310;-69
2024/01/31 03:16:51;;;;;;;;;11.00;11.00;;;;;14.23;91.12;102848.75;2094831;28;46628;-69
2024/01/31 03:17:52;;;;;;;;;12.67;11.67;;;;;14.19;91.37;102846.09;2094963;28;45708;-71
2024/01/31 03:18:53;;;;;;;;;11.67;11.00;;;;;14.14;91.82;102844.31;2094768;28;47792;-70
2024/01/31 03:19:53;;;;;;;;;12.00;12.00;;;;;14.13;91.64;102844.34;2094481;28;46565;-70
2024/01/31 03:20:55;;;;;;;;;11.33;10.33;;;;;14.09;92.31;102840.75;2094494;28;46664;-70
2024/01/31 03:21:56;;;;;;;;;8.50;8.25;;;;;14.06;92.31;102843.44;2094870;28;46609;-71
2024/01/31 03:22:56;;;;;;;;;12.00;10.33;;;;;14.05;92.68;102840.78;2095186;28;45422;-69
2024/01/31 03:23:56;;;;;;;;;12.00;11.00;;;;;14.09;92.70;102845.22;2095334;28;46254;-69
2024/01/31 03:24:57;;;;;;;;;10.33;10.33;;;;;14.11;92.83;102840.78;2094905;28;46258;-72
2024/01/31 03:25:57;;;;;;;;;11.00;9.33;;;;;14.11;92.72;102841.69;2093411;28;46798;-69
2024/01/31 03:26:57;;;;;;;;;13.67;12.00;;;;;14.19;92.55;102846.09;2094978;28;45760;-71
2024/01/31 03:27:58;;;;;;;;;10.67;10.67;;;;;14.21;92.65;102845.19;2094509;28;46824;-71
2024/01/31 03:29:01;;;;;;;;;11.33;9.67;;;;;14.22;92.45;102841.63;2093333;28;46298;-69
2024/01/31 03:30:02;;;;;;;;;12.75;11.00;;;;;14.22;92.57;102848.75;2095490;28;46712;-71
2024/01/31 03:31:02;;;;;;;;;11.25;10.50;;;;;14.14;92.29;102844.31;2095785;28;45589;-70
2024/01/31 03:32:03;;;;;;;;;11.67;11.67;;;;;14.17;92.51;102848.75;2096056;28;46827;-71
2024/01/31 03:33:04;;;;;;;;;13.00;11.33;;;;;14.18;92.82;102858.56;2095920;28;46835;-69
2024/01/31 03:34:07;;;;;;;;;11.00;11.00;;;;;14.18;92.48;102844.31;2096145;28;46904;-70
2024/01/31 03:35:08;;;;;;;;;11.50;10.00;;;;;14.21;92.50;102852.31;2095798;28;46086;-69
2024/01/31 03:36:12;;;;;;;;;10.00;10.00;;;;;14.24;92.11;102847.88;2095606;28;46303;-71
2024/01/31 03:37:12;;;;;;;;;9.00;9.00;;;;;14.25;91.81;102848.75;2095505;28;46867;-69
2024/01/31 03:38:12;;;;;;;;;12.00;12.00;;;;;14.24;91.99;102841.66;2096665;28;46554;-70
2024/01/31 03:39:12;;;;;;;;;12.33;12.33;;;;;14.20;92.03;102848.75;2096141;28;46472;-69
2024/01/31 03:40:13;;;;;;;;;10.00;9.67;;;;;14.25;92.01;102846.09;2095656;28;46805;-69
2024/01/31 03:41:13;;;;;;;;;11.67;11.67;;;;;14.27;92.04;102847.84;2095546;28;46709;-69
2024/01/31 03:42:14;;;;;;;;;14.00;13.00;;;;;14.24;91.88;102855.88;2096050;28;46858;-70
2024/01/31 03:43:14;;;;;;;;;11.00;10.00;;;;;14.20;92.07;102847.84;2086476;28;46568;-69
2024/01/31 03:44:15;;;;;;;;;11.33;10.67;;;;;14.19;91.77;102846.97;2086569;28;47179;-68
2024/01/31 03:45:15;;;;;;;;;13.00;13.00;;;;;14.14;92.11;102843.44;2086781;28;46173;-69
2024/01/31 03:46:15;;;;;;;;;14.67;13.33;;;;;14.17;91.78;102847.88;2086775;28;46304;-70
2024/01/31 03:47:16;;;;;;;;;11.00;9.67;;;;;14.15;92.33;102842.53;2085574;28;46620;-70
2024/01/31 03:48:16;;;;;;;;;11.67;9.33;;;;;14.14;92.38;102848.78;2086986;28;46340;-70
2024/01/31 03:49:16;;;;;;;;;11.67;11.67;;;;;14.16;92.08;102847.00;2087051;28;46041;-69
2024/01/31 03:50:17;;;;;;;;;12.00;12.00;;;;;14.18;92.34;102846.97;2087074;28;46369;-70
2024/01/31 03:51:22;;;;;;;;;12.00;11.00;;;;;14.25;92.19;102854.09;2086679;28;46235;-69
2024/01/31 03:52:24;;;;;;;;;11.50;10.25;;;;;14.23;91.49;102851.44;2085896;28;47147;-68
2024/01/31 03:53:25;;;;;;;;;12.50;11.25;;;;;14.24;91.64;102855.00;2086255;28;47231;-69
2024/01/31 03:54:26;;;;;;;;;8.50;8.00;;;;;14.23;91.39;102854.09;2086580;28;46776;-70
2024/01/31 03:55:26;;;;;;;;;12.00;10.00;;;;;14.27;91.65;102850.53;2086495;28;46930;-69
2024/01/31 03:56:26;;;;;;;;;11.33;11.33;;;;;14.25;90.91;102854.09;2086345;28;46454;-70
2024/01/31 03:57:26;;;;;;;;;10.33;10.33;;;;;14.22;90.84;102854.97;2086671;28;46116;-68
2024/01/31 03:58:27;;;;;;;;;9.67;9.67;;;;;14.28;90.92;102854.09;2086304;28;47250;-71
2024/01/31 03:59:27;;;;;;;;;9.67;9.67;;;;;14.26;91.40;102862.09;2086503;28;47435;-71
2024/01/31 04:00:27;;;;;;;;;11.00;10.00;;;;;14.22;90.93;102854.09;2086851;28;45061;-71
2024/01/31 04:01:28;;;;;;;;;9.00;9.00;;;;;14.28;91.73;102865.66;2086451;28;47071;-70
2024/01/31 04:02:28;;;;;;;;;8.00;8.00;;;;;14.29;91.01;102859.41;2086331;28;46002;-69
2024/01/31 04:03:28;;;;;;;;;10.67;10.67;;;;;14.32;91.05;102861.19;2086534;28;47123;-70
2024/01/31 04:04:29;;;;;;;;;13.33;11.00;;;;;14.31;90.75;102862.97;2085446;28;45752;-70
2024/01/31 04:05:29;;;;;;;;;8.67;7.67;;;;;14.31;90.78;102862.97;2086963;28;45916;-71
2024/01/31 04:06:29;;;;;;;;;13.00;10.33;;;;;14.31;90.77;102867.41;2086335;28;46094;-70
2024/01/31 04:07:30;;;;;;;;;12.00;11.00;;;;;14.31;91.00;102862.97;2078135;28;46578;-69
2024/01/31 04:08:30;;;;;;;;;9.67;9.00;;;;;14.26;91.05;102872.78;2077865;28;47252;-70
2024/01/31 04:09:31;;;;;;;;;11.67;11.67;;;;;14.30;91.08;102865.66;2086092;28;47180;-70
2024/01/31 04:10:31;;;;;;;;;10.67;8.67;;;;;14.32;90.85;102874.53;2086798;28;46381;-69
2024/01/31 04:11:34;;;;;;;;;10.33;10.33;;;;;14.34;90.86;102878.09;2087266;28;46844;-70
2024/01/31 04:12:34;;;;;;;;;11.50;11.00;;;;;14.28;90.68;102871.00;2085941;28;46381;-69
2024/01/31 04:13:36;;;;;;;;;11.33;11.33;;;;;14.27;90.90;102877.22;2086558;28;46200;-70
2024/01/31 04:14:36;;;;;;;;;8.25;8.00;;;;;14.26;91.14;102875.47;2087484;28;47291;-71
2024/01/31 04:15:37;;;;;;;;;12.67;12.00;;;;;14.33;90.77;102869.19;2096492;28;45951;-70
2024/01/31 04:16:37;;;;;;;;;13.67;12.67;;;;;14.30;90.60;102874.53;2096391;28;46554;-71
2024/01/31 04:17:37;;;;;;;;;10.33;10.33;;;;;14.34;90.58;102870.97;2095144;28;46806;-70
2024/01/31 04:18:38;;;;;;;;;9.67;9.67;;;;;14.28;90.54;102876.34;2095804;28;45582;-70
2024/01/31 04:19:38;;;;;;;;;10.67;10.67;;;;;14.27;90.67;102865.66;2095986;28;46572;-71
2024/01/31 04:20:39;;;;;;;;;11.33;11.33;;;;;14.30;90.21;102871.88;2095644;28;46348;-70
2024/01/31 04:21:39;;;;;;;;;12.00;11.67;;;;;14.25;90.77;102868.34;2094812;28;45587;-70
2024/01/31 04:22:40;;;;;;;;;11.33;11.00;;;;;14.23;90.19;102867.47;2095947;28;46426;-69
2024/01/31 04:23:40;;;;;;;;;11.33;11.33;;;;;14.25;90.89;102865.66;2095885;28;46264;-68
2024/01/31 04:24:40;;;;;;;;;12.00;11.00;;;;;14.25;91.23;102873.69;2095066;28;46878;-70
2024/01/31 04:25:41;;;;;;;;;11.67;10.67;;;;;14.25;91.05;102865.66;2095088;28;46863;-70
2024/01/31 04:26:43;;;;;;;;;9.33;9.33;;;;;14.24;90.43;102866.56;2095357;28;46496;-70
2024/01/31 04:27:43;;;;;;;;;10.50;9.25;;;;;14.21;91.09;102857.66;2095235;28;46747;-69
2024/01/31 04:28:44;;;;;;;;;12.67;10.00;;;;;14.24;91.18;102858.56;2096352;28;46637;-68
2024/01/31 04:29:44;;;;;;;;;10.00;10.00;;;;;14.24;91.02;102858.56;2096619;28;45751;-69
2024/01/31 04:30:44;;;;;;;;;9.00;8.67;;;;;14.18;91.45;102850.53;2095924;28;46024;-69
2024/01/31 04:31:51;;;;;;;;;9.00;9.00;;;;;14.26;90.69;102858.53;2095654;28;46771;-70
2024/01/31 04:32:51;;;;;;;;;9.75;9.75;;;;;14.35;90.26;102859.38;2095538;28;47052;-69
2024/01/31 04:33:52;;;;;;;;;9.00;9.00;;;;;14.38;90.15;102855.84;2095599;28;45961;-71
2024/01/31 04:34:52;;;;;;;;;9.00;9.00;;;;;14.30;89.37;102862.97;2095055;28;46483;-69
2024/01/31 04:35:52;;;;;;;;;11.67;11.33;;;;;14.33;89.69;102860.28;2095694;28;46267;-71
2024/01/31 04:36:53;;;;;;;;;9.67;9.00;;;;;14.34;89.93;102862.06;2095788;28;45828;-69
2024/01/31 04:37:53;;;;;;;;;11.00;10.00;;;;;14.33;89.85;102865.63;2086094;28;45154;-70